Time;durP1;ratioP1;P1;durP2;ratioP2;P2;SDS_P1;SDS_P2;PMS_P1;PMS_P2;Temp;Humidity;BMP_temperature;BMP_pressure;BME280_temperature;BME280_humidity;BME280_pressure;Samples;Min_cycle;Max_cycle;Signal;HPM_P1;HPM_P2
2024/01/16 00:02:10;;;;;;;0.73;0.60;;;;;;;;;;10269169;28;20692;-69
2024/01/16 00:07:11;;;;;;;4.28;0.50;;;;;;;;;;10268931;28;20295;-69
2024/01/16 00:12:12;;;;;;;2.58;0.50;;;;;;;;;;10277652;28;20377;-69
2024/01/16 00:17:13;;;;;;;0.82;0.57;;;;;;;;;;10260750;28;20201;-69
2024/01/16 00:22:14;;;;;;;0.47;0.47;;;;;;;;;;10270711;28;20212;-69
2024/01/16 00:27:15;;;;;;;1.50;0.57;;;;;;;;;;10256861;28;20212;-70
2024/01/16 00:32:16;;;;;;;0.80;0.60;;;;;;;;;;10270328;28;20231;-70
2024/01/16 00:37:17;;;;;;;0.50;0.50;;;;;;;;;;10307439;28;20643;-70
2024/01/16 00:42:18;;;;;;;0.40;0.40;;;;;;;;;;10318779;28;20217;-69
2024/01/16 00:47:19;;;;;;;3.22;0.50;;;;;;;;;;10318636;28;20208;-69
2024/01/16 00:52:20;;;;;;;1.15;0.90;;;;;;;;;;10319827;28;20222;-69
2024/01/16 00:57:21;;;;;;;4.22;0.80;;;;;;;;;;10313331;28;20192;-70
2024/01/16 01:02:22;;;;;;;3.95;0.75;;;;;;;;;;10299535;28;20919;-69
2024/01/16 01:07:25;;;;;;;1.58;0.60;;;;;;;;;;10311926;28;20211;-70
2024/01/16 01:12:26;;;;;;;1.17;0.75;;;;;;;;;;10317383;28;20205;-69
2024/01/16 01:17:27;;;;;;;3.05;0.80;;;;;;;;;;10322503;28;20654;-70
2024/01/16 01:22:28;;;;;;;1.85;0.88;;;;;;;;;;10316714;28;20776;-70
2024/01/16 01:27:29;;;;;;;0.80;0.80;;;;;;;;;;10311357;28;20208;-70
2024/01/16 01:32:30;;;;;;;1.08;1.08;;;;;;;;;;10310575;28;20303;-70
2024/01/16 01:37:31;;;;;;;0.90;0.90;;;;;;;;;;10307120;28;20193;-70
2024/01/16 01:42:32;;;;;;;1.35;1.25;;;;;;;;;;10313219;28;20307;-70
2024/01/16 01:47:33;;;;;;;4.50;1.20;;;;;;;;;;10317107;28;20224;-69
2024/01/16 01:52:35;;;;;;;1.02;1.02;;;;;;;;;;10320542;28;20209;-70
2024/01/16 01:57:35;;;;;;;1.10;1.10;;;;;;;;;;10314783;28;20205;-70
2024/01/16 02:02:37;;;;;;;1.35;1.10;;;;;;;;;;10306313;28;20217;-69
2024/01/16 02:07:38;;;;;;;1.23;1.20;;;;;;;;;;10286292;28;20283;-70
2024/01/16 02:12:39;;;;;;;1.45;1.05;;;;;;;;;;10310390;28;20211;-70
2024/01/16 02:17:40;;;;;;;2.80;0.90;;;;;;;;;;10291563;28;20745;-70
2024/01/16 02:22:46;;;;;;;1.10;1.05;;;;;;;;;;10312310;28;20226;-70
2024/01/16 02:27:47;;;;;;;1.10;1.10;;;;;;;;;;10314955;28;20731;-70
2024/01/16 02:32:48;;;;;;;0.80;0.80;;;;;;;;;;10291155;28;20217;-70
2024/01/16 02:37:49;;;;;;;3.05;1.33;;;;;;;;;;10264303;28;20627;-69
2024/01/16 02:42:50;;;;;;;2.03;1.27;;;;;;;;;;10265467;28;20394;-69
2024/01/16 02:47:51;;;;;;;0.65;0.65;;;;;;;;;;10259116;28;20244;-69
2024/01/16 02:52:53;;;;;;;0.60;0.60;;;;;;;;;;10266871;28;20220;-69
2024/01/16 02:57:53;;;;;;;0.60;0.60;;;;;;;;;;10280210;28;20693;-69
2024/01/16 03:02:55;;;;;;;0.40;0.40;;;;;;;;;;10265366;28;20227;-69
2024/01/16 03:07:56;;;;;;;0.57;0.43;;;;;;;;;;10271273;28;20221;-69
2024/01/16 03:12:57;;;;;;;0.50;0.50;;;;;;;;;;10264014;28;20217;-69
2024/01/16 03:17:58;;;;;;;0.40;0.40;;;;;;;;;;10275962;28;20190;-69
2024/01/16 03:22:59;;;;;;;0.40;0.40;;;;;;;;;;10283319;28;20299;-69
2024/01/16 03:28:00;;;;;;;2.33;0.80;;;;;;;;;;10272030;28;20348;-69
2024/01/16 03:33:01;;;;;;;1.25;1.15;;;;;;;;;;10278492;28;20279;-69
2024/01/16 03:38:03;;;;;;;2.15;0.68;;;;;;;;;;10260488;28;20822;-69
2024/01/16 03:43:07;;;;;;;0.63;0.63;;;;;;;;;;10259908;28;21004;-69
2024/01/16 03:48:08;;;;;;;0.82;0.82;;;;;;;;;;10261335;28;20219;-69
2024/01/16 03:53:09;;;;;;;1.27;0.60;;;;;;;;;;10291424;28;20589;-70
2024/01/16 03:58:10;;;;;;;0.95;0.73;;;;;;;;;;10275618;28;20213;-70
2024/01/16 04:03:13;;;;;;;1.42;0.80;;;;;;;;;;10292325;28;20220;-70
2024/01/16 04:08:14;;;;;;;0.60;0.60;;;;;;;;;;10274787;28;20300;-70
2024/01/16 04:13:16;;;;;;;0.75;0.70;;;;;;;;;;10289141;28;20291;-70
2024/01/16 04:18:17;;;;;;;1.67;0.73;;;;;;;;;;10259292;28;20193;-70
2024/01/16 04:23:18;;;;;;;0.77;0.77;;;;;;;;;;10276717;28;20706;-70
2024/01/16 04:28:19;;;;;;;2.75;1.25;;;;;;;;;;10250310;28;20215;-70
2024/01/16 04:33:20;;;;;;;0.95;0.95;;;;;;;;;;10293089;28;20223;-70
2024/01/16 04:38:21;;;;;;;0.70;0.70;;;;;;;;;;10302287;28;20196;-70
2024/01/16 04:43:22;;;;;;;0.40;0.40;;;;;;;;;;10305678;28;20642;-70
2024/01/16 04:48:23;;;;;;;2.65;0.63;;;;;;;;;;10316564;28;20217;-71
2024/01/16 04:53:24;;;;;;;0.50;0.50;;;;;;;;;;10323358;28;20201;-69
2024/01/16 04:58:25;;;;;;;1.55;0.60;;;;;;;;;;10331292;28;20185;-71
2024/01/16 05:03:26;;;;;;;0.40;0.40;;;;;;;;;;10294422;28;20776;-71
2024/01/16 05:08:27;;;;;;;0.40;0.40;;;;;;;;;;10295215;28;20236;-69
2024/01/16 05:13:28;;;;;;;1.75;0.60;;;;;;;;;;10327276;28;20216;-71
2024/01/16 05:18:29;;;;;;;1.48;0.50;;;;;;;;;;10319775;28;20196;-72
2024/01/16 05:23:30;;;;;;;0.30;0.30;;;;;;;;;;10303880;28;20275;-69
2024/01/16 05:28:31;;;;;;;0.30;0.30;;;;;;;;;;10317587;28;20213;-69
2024/01/16 05:33:32;;;;;;;0.50;0.30;;;;;;;;;;10304529;28;20273;-69
2024/01/16 05:38:33;;;;;;;0.88;0.38;;;;;;;;;;10300483;28;20212;-69
2024/01/16 05:43:35;;;;;;;0.50;0.50;;;;;;;;;;10323906;28;20207;-69
2024/01/16 05:48:36;;;;;;;0.70;0.55;;;;;;;;;;10316814;28;20258;-71
2024/01/16 05:53:38;;;;;;;1.67;0.70;;;;;;;;;;10292715;28;20205;-71
2024/01/16 05:58:39;;;;;;;0.75;0.75;;;;;;;;;;10314056;28;20801;-69
2024/01/16 06:03:41;;;;;;;4.57;0.68;;;;;;;;;;10291928;28;20622;-71
2024/01/16 06:08:42;;;;;;;0.90;0.90;;;;;;;;;;10297396;28;20212;-71
2024/01/16 06:13:43;;;;;;;1.13;0.93;;;;;;;;;;10270445;28;20209;-71
2024/01/16 06:18:45;;;;;;;1.60;1.17;;;;;;;;;;10306927;28;20200;-71
2024/01/16 06:23:46;;;;;;;1.63;1.13;;;;;;;;;;10295299;28;20215;-71
2024/01/16 06:28:47;;;;;;;2.75;1.13;;;;;;;;;;10292776;28;20263;-71
2024/01/16 06:33:48;;;;;;;2.13;0.88;;;;;;;;;;10284243;28;20229;-71
2024/01/16 06:38:49;;;;;;;1.27;0.60;;;;;;;;;;10266501;28;20189;-71
2024/01/16 06:43:50;;;;;;;4.20;0.47;;;;;;;;;;10296801;28;20230;-71
2024/01/16 06:48:51;;;;;;;4.88;0.70;;;;;;;;;;10299594;28;20212;-71
2024/01/16 06:53:52;;;;;;;1.00;1.00;;;;;;;;;;10307117;28;20298;-70
2024/01/16 06:58:53;;;;;;;4.28;1.02;;;;;;;;;;10313707;28;20258;-70
2024/01/16 07:03:54;;;;;;;5.60;0.98;;;;;;;;;;10313096;28;20228;-70
2024/01/16 07:08:55;;;;;;;2.97;0.88;;;;;;;;;;10315170;28;20220;-70
2024/01/16 07:13:56;;;;;;;3.75;0.82;;;;;;;;;;10299642;28;20573;-70
2024/01/16 07:18:57;;;;;;;1.05;0.88;;;;;;;;;;10315258;28;20564;-70
2024/01/16 07:23:58;;;;;;;0.98;0.50;;;;;;;;;;10327635;28;20215;-70
2024/01/16 07:28:59;;;;;;;2.45;0.77;;;;;;;;;;10307891;28;20213;-70
2024/01/16 07:34:00;;;;;;;0.40;0.40;;;;;;;;;;10338485;28;20220;-70
2024/01/16 07:39:01;;;;;;;0.30;0.30;;;;;;;;;;10298095;28;20207;-70
2024/01/16 07:44:02;;;;;;;2.45;0.77;;;;;;;;;;10316435;28;20695;-71
2024/01/16 07:49:03;;;;;;;0.57;0.55;;;;;;;;;;10323413;28;20687;-70
2024/01/16 07:54:08;;;;;;;2.05;0.50;;;;;;;;;;10318577;28;20201;-70
2024/01/16 07:59:09;;;;;;;1.48;0.60;;;;;;;;;;10327172;28;20190;-70
2024/01/16 08:04:10;;;;;;;3.55;0.60;;;;;;;;;;10317018;28;20220;-70
2024/01/16 08:09:12;;;;;;;0.30;0.30;;;;;;;;;;10331966;28;20221;-70
2024/01/16 08:14:13;;;;;;;3.38;0.43;;;;;;;;;;10314083;28;20211;-70
2024/01/16 08:19:14;;;;;;;1.30;0.60;;;;;;;;;;10315014;28;20197;-70
2024/01/16 08:24:15;;;;;;;3.10;0.50;;;;;;;;;;10301275;28;20794;-70
2024/01/16 08:29:16;;;;;;;1.50;0.60;;;;;;;;;;10300399;28;20214;-70
2024/01/16 08:34:18;;;;;;;3.00;0.40;;;;;;;;;;10323060;28;20242;-70
2024/01/16 08:39:19;;;;;;;0.45;0.45;;;;;;;;;;10328117;28;20192;-70
2024/01/16 08:44:20;;;;;;;1.85;0.52;;;;;;;;;;10285089;28;20224;-71
2024/01/16 08:49:21;;;;;;;1.67;0.93;;;;;;;;;;10311860;28;20600;-70
2024/01/16 08:54:22;;;;;;;3.00;0.75;;;;;;;;;;10327102;28;20687;-71
2024/01/16 08:59:24;;;;;;;1.10;0.52;;;;;;;;;;10322570;28;20238;-70
2024/01/16 09:04:25;;;;;;;0.50;0.50;;;;;;;;;;10327604;28;20223;-71
2024/01/16 09:09:26;;;;;;;1.10;0.55;;;;;;;;;;10303975;28;21032;-71
2024/01/16 09:14:27;;;;;;;0.93;0.73;;;;;;;;;;10314059;28;20224;-70
2024/01/16 09:19:28;;;;;;;8.02;3.08;;;;;;;;;;10317025;28;20276;-69
2024/01/16 09:24:29;;;;;;;3.17;1.95;;;;;;;;;;10321503;28;20258;-69
2024/01/16 09:29:30;;;;;;;2.90;1.88;;;;;;;;;;10327023;28;20220;-69
2024/01/16 09:34:31;;;;;;;16.05;5.45;;;;;;;;;;10324449;28;20300;-69
2024/01/16 09:39:34;;;;;;;7.07;4.82;;;;;;;;;;10299014;28;20185;-69
2024/01/16 09:44:35;;;;;;;3.67;1.48;;;;;;;;;;10319213;28;20216;-69
2024/01/16 09:49:36;;;;;;;1.02;0.80;;;;;;;;;;10322065;28;20717;-69
2024/01/16 09:54:37;;;;;;;2.25;1.13;;;;;;;;;;10314708;28;20211;-70
2024/01/16 09:59:40;;;;;;;2.05;1.02;;;;;;;;;;10317273;28;20215;-70
2024/01/16 10:04:42;;;;;;;0.90;0.90;;;;;;;;;;10310773;28;20308;-70
2024/01/16 10:09:44;;;;;;;1.50;0.73;;;;;;;;;;10303454;28;20184;-70
2024/01/16 10:14:46;;;;;;;5.70;1.15;;;;;;;;;;10302368;28;20209;-70
2024/01/16 10:19:52;;;;;;;2.85;0.70;;;;;;;;;;10303864;28;20232;-70
2024/01/16 10:25:07;;;;;;;3.50;1.35;;;;;;;;;;10325097;28;20227;-70
2024/01/16 10:30:08;;;;;;;1.35;0.57;;;;;;;;;;10324156;28;20200;-69
2024/01/16 10:35:13;;;;;;;5.07;0.70;;;;;;;;;;10320191;28;20594;-69
2024/01/16 10:40:18;;;;;;;2.95;1.17;;;;;;;;;;10320573;28;20201;-69
2024/01/16 10:45:19;;;;;;;6.32;1.35;;;;;;;;;;10325250;28;20216;-70
2024/01/16 10:50:21;;;;;;;1.70;0.82;;;;;;;;;;10319525;28;20203;-71
2024/01/16 10:55:23;;;;;;;6.20;0.65;;;;;;;;;;10302155;28;20594;-71
2024/01/16 11:00:26;;;;;;;3.40;0.70;;;;;;;;;;10316076;28;20188;-70
2024/01/16 11:05:33;;;;;;;1.23;0.60;;;;;;;;;;10308102;28;20686;-70
2024/01/16 11:10:34;;;;;;;0.95;0.85;;;;;;;;;;10316366;28;20271;-70
2024/01/16 11:15:37;;;;;;;2.88;0.65;;;;;;;;;;10322587;28;20208;-70
2024/01/16 11:20:42;;;;;;;5.72;1.08;;;;;;;;;;10308051;28;20287;-69
2024/01/16 11:25:43;;;;;;;1.75;0.68;;;;;;;;;;10297562;28;20951;-71
2024/01/16 11:30:44;;;;;;;0.90;0.90;;;;;;;;;;10318772;28;20208;-72
2024/01/16 11:35:46;;;;;;;0.80;0.73;;;;;;;;;;10305092;28;20306;-71
2024/01/16 11:40:47;;;;;;;3.40;1.40;;;;;;;;;;10304935;28;20184;-72
2024/01/16 11:45:49;;;;;;;1.20;1.20;;;;;;;;;;10332622;28;20216;-73
2024/01/16 11:50:51;;;;;;;1.10;0.98;;;;;;;;;;10321187;28;20301;-72
2024/01/16 11:55:59;;;;;;;2.80;1.70;;;;;;;;;;10307458;28;20213;-69
2024/01/16 12:01:06;;;;;;;2.13;1.20;;;;;;;;;;10308189;28;20217;-70
2024/01/16 12:06:10;;;;;;;1.92;1.10;;;;;;;;;;10292440;28;20986;-72
2024/01/16 12:11:11;;;;;;;6.80;1.50;;;;;;;;;;10302417;28;20198;-69
2024/01/16 12:16:12;;;;;;;2.67;1.58;;;;;;;;;;10323835;28;20212;-69
2024/01/16 12:21:14;;;;;;;3.50;1.85;;;;;;;;;;10329029;28;20796;-72
2024/01/16 12:26:21;;;;;;;3.05;1.80;;;;;;;;;;10303895;28;20663;-72
2024/01/16 12:31:23;;;;;;;4.68;2.33;;;;;;;;;;10326589;28;20278;-71
2024/01/16 12:36:25;;;;;;;2.08;1.95;;;;;;;;;;10301772;28;20212;-70
2024/01/16 12:41:28;;;;;;;4.00;2.35;;;;;;;;;;10323480;28;20241;-70
2024/01/16 12:46:29;;;;;;;2.85;1.52;;;;;;;;;;10315313;28;20282;-69
2024/01/16 12:51:30;;;;;;;2.90;1.52;;;;;;;;;;10315769;28;20193;-70
2024/01/16 12:56:32;;;;;;;1.90;1.50;;;;;;;;;;10322750;28;20243;-70
2024/01/16 13:01:33;;;;;;;1.98;1.73;;;;;;;;;;10318717;28;20215;-72
2024/01/16 13:06:34;;;;;;;6.80;1.25;;;;;;;;;;10330410;28;20266;-72
2024/01/16 13:11:45;;;;;;;1.77;1.40;;;;;;;;;;10328339;28;20190;-72
2024/01/16 13:16:46;;;;;;;2.72;1.33;;;;;;;;;;10288733;28;20233;-72
2024/01/16 13:21:47;;;;;;;2.03;1.92;;;;;;;;;;10317023;28;20272;-72
2024/01/16 13:26:48;;;;;;;2.95;1.65;;;;;;;;;;10301277;28;20217;-72
2024/01/16 13:31:54;;;;;;;4.13;1.67;;;;;;;;;;10311356;28;20262;-72
2024/01/16 13:36:59;;;;;;;3.63;1.42;;;;;;;;;;10312675;28;20239;-72
2024/01/16 13:42:00;;;;;;;5.88;1.70;;;;;;;;;;10327332;28;20192;-72
2024/01/16 13:47:01;;;;;;;1.65;1.50;;;;;;;;;;10291970;28;20307;-72
2024/01/16 13:52:03;;;;;;;2.95;1.48;;;;;;;;;;10314608;28;20189;-71
2024/01/16 13:57:04;;;;;;;2.15;1.38;;;;;;;;;;10322504;28;20243;-72
2024/01/16 14:02:06;;;;;;;2.33;1.83;;;;;;;;;;10295215;28;20318;-72
2024/01/16 14:07:07;;;;;;;1.70;1.48;;;;;;;;;;10315338;28;20208;-72
2024/01/16 14:12:09;;;;;;;4.05;1.90;;;;;;;;;;10300915;28;20180;-72
2024/01/16 14:17:10;;;;;;;2.78;1.63;;;;;;;;;;10300647;28;20582;-72
2024/01/16 14:22:11;;;;;;;3.28;1.83;;;;;;;;;;10329257;28;20207;-72
2024/01/16 14:27:12;;;;;;;3.20;2.20;;;;;;;;;;10287149;28;20217;-72
2024/01/16 14:32:13;;;;;;;3.90;2.15;;;;;;;;;;10319976;28;20256;-72
2024/01/16 14:37:16;;;;;;;3.78;2.05;;;;;;;;;;10299096;28;20196;-72
2024/01/16 14:42:17;;;;;;;2.38;1.77;;;;;;;;;;10312640;28;20246;-72
2024/01/16 14:47:18;;;;;;;2.63;2.42;;;;;;;;;;10323601;28;20215;-72
2024/01/16 14:52:19;;;;;;;3.05;2.63;;;;;;;;;;10302943;28;20192;-72
2024/01/16 14:57:20;;;;;;;4.85;2.88;;;;;;;;;;10318143;28;20199;-72
2024/01/16 15:02:22;;;;;;;4.38;2.58;;;;;;;;;;10321035;28;20593;-73
2024/01/16 15:07:23;;;;;;;2.38;2.17;;;;;;;;;;10283807;28;20212;-72
2024/01/16 15:12:25;;;;;;;2.97;2.55;;;;;;;;;;10289479;28;20223;-72
2024/01/16 15:17:28;;;;;;;7.05;2.70;;;;;;;;;;10310796;28;20215;-71
2024/01/16 15:22:29;;;;;;;5.03;3.10;;;;;;;;;;10308223;28;20239;-72
2024/01/16 15:27:30;;;;;;;3.55;3.17;;;;;;;;;;10307561;28;20217;-72
2024/01/16 15:32:32;;;;;;;6.13;4.57;;;;;;;;;;10294521;28;20235;-72
2024/01/16 15:37:36;;;;;;;4.82;3.47;;;;;;;;;;10292402;28;20655;-72
2024/01/16 15:42:38;;;;;;;3.83;2.80;;;;;;;;;;10328152;28;20211;-72
2024/01/16 15:47:39;;;;;;;4.18;3.38;;;;;;;;;;10297938;28;20237;-72
2024/01/16 15:52:40;;;;;;;2.78;2.58;;;;;;;;;;10303704;28;20208;-72
2024/01/16 15:57:41;;;;;;;3.60;2.85;;;;;;;;;;10287460;28;20220;-71
2024/01/16 16:02:47;;;;;;;6.82;2.25;;;;;;;;;;10322513;28;20217;-72
2024/01/16 16:07:48;;;;;;;2.08;1.98;;;;;;;;;;10307974;28;20270;-71
2024/01/16 16:12:49;;;;;;;5.88;1.90;;;;;;;;;;10328409;28;20196;-71
2024/01/16 16:17:50;;;;;;;2.47;2.08;;;;;;;;;;10325026;28;20679;-72
2024/01/16 16:22:52;;;;;;;3.13;2.28;;;;;;;;;;10309426;28;20647;-71
2024/01/16 16:27:53;;;;;;;6.43;2.80;;;;;;;;;;10318012;28;20247;-71
2024/01/16 16:32:54;;;;;;;4.22;3.38;;;;;;;;;;10302162;28;20324;-71
2024/01/16 16:37:55;;;;;;;2.83;2.70;;;;;;;;;;10325008;28;20565;-71
2024/01/16 16:42:56;;;;;;;5.60;3.47;;;;;;;;;;10321338;28;20209;-71
2024/01/16 16:47:57;;;;;;;3.15;2.80;;;;;;;;;;10327001;28;20713;-71
2024/01/16 16:52:58;;;;;;;1.52;0.90;;;;;;;;;;10323114;28;20208;-71
2024/01/16 16:57:59;;;;;;;0.80;0.80;;;;;;;;;;10328088;28;20201;-71
2024/01/16 17:03:03;;;;;;;0.80;0.80;;;;;;;;;;10316920;28;20498;-70
2024/01/16 17:08:04;;;;;;;1.13;1.10;;;;;;;;;;10272673;28;20233;-71
2024/01/16 17:13:05;;;;;;;3.00;1.35;;;;;;;;;;10323522;28;20704;-71
2024/01/16 17:18:07;;;;;;;7.68;0.70;;;;;;;;;;10314586;28;20196;-71
2024/01/16 17:23:08;;;;;;;4.30;0.82;;;;;;;;;;10299640;28;20270;-71
2024/01/16 17:28:10;;;;;;;1.60;0.80;;;;;;;;;;10313726;28;20664;-71
2024/01/16 17:33:11;;;;;;;4.18;1.20;;;;;;;;;;10302421;28;20323;-71
2024/01/16 17:38:15;;;;;;;1.00;1.00;;;;;;;;;;10299485;28;20279;-70
2024/01/16 17:43:16;;;;;;;2.70;0.50;;;;;;;;;;10279261;28;20351;-71
2024/01/16 17:48:18;;;;;;;1.15;1.15;;;;;;;;;;10293119;28;20219;-71
2024/01/16 17:53:19;;;;;;;0.90;0.80;;;;;;;;;;10302937;28;20223;-71
2024/01/16 17:58:21;;;;;;;1.88;1.00;;;;;;;;;;10295985;28;20251;-70
2024/01/16 18:03:25;;;;;;;2.47;0.80;;;;;;;;;;10287918;28;20213;-70
2024/01/16 18:08:25;;;;;;;3.10;0.77;;;;;;;;;;10314748;28;20209;-71
2024/01/16 18:13:29;;;;;;;1.75;0.70;;;;;;;;;;10321842;28;20203;-70
2024/01/16 18:18:31;;;;;;;3.67;1.65;;;;;;;;;;10304933;28;20212;-70
2024/01/16 18:23:32;;;;;;;7.00;2.03;;;;;;;;;;10301483;28;20641;-71
2024/01/16 18:28:33;;;;;;;2.58;1.30;;;;;;;;;;10287486;28;20243;-70
2024/01/16 18:33:37;;;;;;;4.18;1.52;;;;;;;;;;10298727;28;20864;-70
2024/01/16 18:38:40;;;;;;;4.30;1.20;;;;;;;;;;10298523;28;20185;-70
2024/01/16 18:43:41;;;;;;;1.17;1.17;;;;;;;;;;10304566;28;20208;-70
2024/01/16 18:48:42;;;;;;;5.30;1.45;;;;;;;;;;10299996;28;20223;-71
2024/01/16 18:54:06;;;;;;;5.50;1.40;;;;;;;;;;10309559;28;20216;-70
2024/01/16 18:59:07;;;;;;;3.67;1.13;;;;;;;;;;10309463;28;20259;-70
2024/01/16 19:04:12;;;;;;;2.30;1.17;;;;;;;;;;10299270;28;20228;-70
2024/01/16 19:09:13;;;;;;;3.22;1.25;;;;;;;;;;10293781;28;20217;-70
2024/01/16 19:14:14;;;;;;;2.70;1.98;;;;;;;;;;10303955;28;20204;-72
2024/01/16 19:19:15;;;;;;;4.80;1.23;;;;;;;;;;10315616;28;20215;-71
2024/01/16 19:24:17;;;;;;;2.38;1.85;;;;;;;;;;10309275;28;20823;-70
2024/01/16 19:29:19;;;;;;;1.98;1.40;;;;;;;;;;10304648;28;20703;-70
2024/01/16 19:34:20;;;;;;;2.25;1.13;;;;;;;;;;10297052;28;20745;-70
2024/01/16 19:39:22;;;;;;;1.10;1.05;;;;;;;;;;10275002;28;20822;-71
2024/01/16 19:44:23;;;;;;;1.05;0.90;;;;;;;;;;10308595;28;20335;-70
2024/01/16 19:49:24;;;;;;;2.60;1.45;;;;;;;;;;10316695;28;20224;-71
2024/01/16 19:54:25;;;;;;;2.25;0.82;;;;;;;;;;10280512;28;20213;-71
2024/01/16 19:59:26;;;;;;;2.15;1.05;;;;;;;;;;10323576;28;20263;-70
2024/01/16 20:04:28;;;;;;;1.15;1.05;;;;;;;;;;10290385;28;20247;-71
2024/01/16 20:09:29;;;;;;;3.97;1.85;;;;;;;;;;10311441;28;20224;-71
2024/01/16 20:14:30;;;;;;;3.33;1.58;;;;;;;;;;10306468;28;20864;-70
2024/01/16 20:19:33;;;;;;;5.45;1.83;;;;;;;;;;10285868;28;20197;-70
2024/01/16 20:24:35;;;;;;;1.48;1.42;;;;;;;;;;10313435;28;20216;-71
2024/01/16 20:29:36;;;;;;;1.80;1.70;;;;;;;;;;10287257;28;20216;-70
2024/01/16 20:34:37;;;;;;;3.33;2.10;;;;;;;;;;10318183;28;20216;-70
2024/01/16 20:39:38;;;;;;;4.32;2.00;;;;;;;;;;10304107;28;20189;-71
2024/01/16 20:44:39;;;;;;;4.32;1.98;;;;;;;;;;10291015;28;20223;-71
2024/01/16 20:49:40;;;;;;;2.05;1.23;;;;;;;;;;10320784;28;20248;-70
2024/01/16 20:54:41;;;;;;;1.90;1.45;;;;;;;;;;10300952;28;20756;-70
2024/01/16 20:59:42;;;;;;;1.17;1.13;;;;;;;;;;10292185;28;20218;-69
2024/01/16 21:04:44;;;;;;;2.35;1.30;;;;;;;;;;10310506;28;20296;-69
2024/01/16 21:09:45;;;;;;;1.40;1.30;;;;;;;;;;10291479;28;20217;-70
2024/01/16 21:14:46;;;;;;;1.52;1.48;;;;;;;;;;10308651;28;20212;-69
2024/01/16 21:19:47;;;;;;;3.35;1.48;;;;;;;;;;10313301;28;20224;-70
2024/01/16 21:24:48;;;;;;;1.10;1.00;;;;;;;;;;10300927;28;20220;-69
2024/01/16 21:29:49;;;;;;;1.60;1.50;;;;;;;;;;10292504;28;20224;-70
2024/01/16 21:34:50;;;;;;;1.83;1.73;;;;;;;;;;10303297;28;20225;-69
2024/01/16 21:39:51;;;;;;;2.15;1.95;;;;;;;;;;10305060;28;20224;-69
2024/01/16 21:44:53;;;;;;;5.57;1.75;;;;;;;;;;10319528;28;20219;-69
2024/01/16 21:49:54;;;;;;;1.63;1.40;;;;;;;;;;10319434;28;20216;-69
2024/01/16 21:54:55;;;;;;;6.53;2.25;;;;;;;;;;10320160;28;20215;-69
2024/01/16 21:59:56;;;;;;;4.03;2.30;;;;;;;;;;10304658;28;20201;-69
2024/01/16 22:04:57;;;;;;;1.90;1.80;;;;;;;;;;10321714;28;20308;-70
2024/01/16 22:09:58;;;;;;;2.33;2.22;;;;;;;;;;10320773;28;20215;-70
2024/01/16 22:14:59;;;;;;;2.33;2.00;;;;;;;;;;10303426;28;20224;-70
2024/01/16 22:20:00;;;;;;;4.00;2.22;;;;;;;;;;10305583;28;20224;-69
2024/01/16 22:25:01;;;;;;;2.83;2.13;;;;;;;;;;10311934;28;20248;-69
2024/01/16 22:30:02;;;;;;;6.00;1.70;;;;;;;;;;10323555;28;20230;-69
2024/01/16 22:35:03;;;;;;;3.25;1.63;;;;;;;;;;10300075;28;20224;-69
2024/01/16 22:40:05;;;;;;;3.60;2.10;;;;;;;;;;10301639;28;20672;-69
2024/01/16 22:45:09;;;;;;;1.90;1.55;;;;;;;;;;10312163;28;20231;-69
2024/01/16 22:50:11;;;;;;;1.92;1.83;;;;;;;;;;10310803;28;20181;-69
2024/01/16 22:55:13;;;;;;;3.20;1.20;;;;;;;;;;10327900;28;20213;-69
2024/01/16 23:00:20;;;;;;;1.33;1.20;;;;;;;;;;10327091;28;20185;-69
2024/01/16 23:05:23;;;;;;;1.45;1.35;;;;;;;;;;10325347;28;20659;-69
2024/01/16 23:10:25;;;;;;;2.67;1.55;;;;;;;;;;10332862;28;20821;-69
2024/01/16 23:15:26;;;;;;;3.63;2.00;;;;;;;;;;10325236;28;20212;-69
2024/01/16 23:20:27;;;;;;;2.53;2.40;;;;;;;;;;10330497;28;20213;-69
2024/01/16 23:25:28;;;;;;;1.90;1.80;;;;;;;;;;10311247;28;20307;-68
2024/01/16 23:30:32;;;;;;;2.92;2.38;;;;;;;;;;10317279;28;20188;-68
2024/01/16 23:35:33;;;;;;;7.13;3.58;;;;;;;;;;10297897;28;20727;-69
2024/01/16 23:40:34;;;;;;;3.67;2.35;;;;;;;;;;10282562;28;20190;-68
2024/01/16 23:45:35;;;;;;;5.53;2.45;;;;;;;;;;10274615;28;20213;-68
2024/01/16 23:50:38;;;;;;;2.92;2.40;;;;;;;;;;10266335;28;20201;-68
2024/01/16 23:55:39;;;;;;;1.65;1.55;;;;;;;;;;10285822;28;20209;-68
